This is the latest recevied weather packets stored in our database for station/object DG4DAZ-6. If no packets are shown the sender has not sent any weather packets the latest 10 day(s).
| Time | Temp. | Humidity | Pressure | Rain* | Wind** | Luminosity | Snow |
|---|---|---|---|---|---|---|---|
| 1777806082 | 19.44° C | 44% | 1010.7 hPa | 0 mm | - | 328 W/m² | - |
| 1777805482 | 19.44° C | 39% | 1010.7 hPa | 0 mm | - | 380 W/m² | - |
| 1777804884 | 20° C | 41% | 1010.6 hPa | 0 mm | - | 468 W/m² | - |
| 1777804283 | 20° C | 43% | 1010.6 hPa | 0 mm | - | 623 W/m² | - |
| 1777803682 | 20° C | 44% | 1010.7 hPa | 0 mm | - | 590 W/m² | - |
| 1777803084 | 19.44° C | 42% | 1010.8 hPa | 0 mm | - | 759 W/m² | - |
| 1777802484 | 19.44° C | 45% | 1010.7 hPa | 0 mm | - | 814 W/m² | - |
| 1777801883 | 18.33° C | 48% | 1010.9 hPa | 0 mm | - | 329 W/m² | - |
| 1777801283 | 18.33° C | 47% | 1010.9 hPa | 0 mm | - | 383 W/m² | - |
| 1777800683 | 18.33° C | 49% | 1011 hPa | 0 mm | - | 378 W/m² | - |
| 1777800082 | 17.78° C | 51% | 1011 hPa | 0 mm | - | 343 W/m² | - |
| 1777799484 | 17.78° C | 51% | 1011.1 hPa | 0 mm | - | 464 W/m² | - |
| 1777798884 | 17.78° C | 51% | 1011.1 hPa | 0 mm | - | 453 W/m² | - |
| 1777798283 | 17.22° C | 50% | 1011.2 hPa | 0 mm | - | 332 W/m² | - |
| 1777797683 | 17.78° C | 49% | 1011.2 hPa | 0 mm | - | 323 W/m² | - |
| 1777797084 | 17.78° C | 51% | 1011.2 hPa | 0 mm | - | 449 W/m² | - |
| 1777796483 | 17.78° C | 49% | 1011.3 hPa | 0 mm | - | 385 W/m² | - |
| 1777795883 | 17.78° C | 52% | 1011.1 hPa | 0 mm | - | 390 W/m² | - |
| 1777795284 | 17.78° C | 52% | 1011.2 hPa | 0 mm | - | 548 W/m² | - |
| 1777794683 | 17.22° C | 52% | 1011.3 hPa | 0 mm | - | 417 W/m² | - |
| 1777794082 | 17.22° C | 52% | 1011.2 hPa | 0 mm | - | 345 W/m² | - |
| 1777793484 | 17.22° C | 52% | 1011.2 hPa | 0 mm | - | 297 W/m² | - |
| 1777792883 | 17.22° C | 54% | 1011.2 hPa | 0 mm | - | 419 W/m² | - |
| 1777792282 | 17.22° C | 52% | 1011.3 hPa | 0 mm | - | 355 W/m² | - |
| 1777791684 | 16.67° C | 55% | 1011.3 hPa | 0 mm | - | 390 W/m² | - |
* Rain latest hour (hover to see other rain measurements)
** Current wind speed in m/s (hover to see current wind gust speed)